Shell River, Minnesota
Current Conditions -  °F | °C
As of 1:53 PM on Sunday 23 Nov 2014 (Local Time) from KPKD Reporting Station
Overcast Overcast  
Wind Chill: 36°   Ceiling: 3600
Heat Index: 40°   Visibility: 10mi
Dew Point: 34°   Wind: 6mph
Humidity: 79%   Direction: 270°W
Pressure: 29.4"   Gusts: NA
Location:  46.7591°N, 94.9748°W
Report Text: KPKD 231953Z AUTO 27005KT 10SM FEW029 BKN036 OVC050 04/01 A2940 RMK AO2 SLP969 T00440011
Loading
Personal Weather Stations






























Interactive Weather Map New forecast layout! Learn more

10-Day Weather Forecast

Advertisements
Track Severe Weather on mobile